createdAt,value
2022-08-17T00:01:51.816Z,101087.06
2022-08-17T00:04:22.733Z,101078.97
2022-08-17T00:06:53.504Z,101078.97
2022-08-17T00:09:23.234Z,101073.56
2022-08-17T00:12:41.081Z,101069.09
2022-08-17T00:14:45.385Z,101071.75
2022-08-17T00:17:15.137Z,101070.88
2022-08-17T00:19:44.850Z,101062.84
2022-08-17T00:22:30.907Z,101060.16
2022-08-17T00:25:04.400Z,101063.75
2022-08-17T00:27:37.063Z,101070.00
2022-08-17T00:30:09.619Z,101069.19
2022-08-17T00:33:15.776Z,101072.75
2022-08-17T00:35:31.042Z,101069.19
2022-08-17T00:38:00.753Z,101064.72
2022-08-17T00:40:44.475Z,101063.88
2022-08-17T00:43:23.974Z,101061.22
2022-08-17T00:45:53.739Z,101072.81
2022-08-17T00:48:30.283Z,101076.44
2022-08-17T00:51:05.273Z,101072.91
2022-08-17T00:53:38.257Z,101069.38
2022-08-17T00:58:41.691Z,101069.41
2022-08-17T01:01:21.446Z,101072.97
2022-08-17T01:03:53.642Z,101064.97
2022-08-17T01:06:28.576Z,101073.03
2022-08-17T01:08:59.905Z,101066.78
2022-08-17T01:11:30.479Z,101065.91
2022-08-17T01:14:02.894Z,101073.94
2022-08-17T01:16:34.725Z,101067.72
2022-08-17T01:19:08.060Z,101075.75
2022-08-17T01:21:47.107Z,101072.19
2022-08-17T01:24:20.100Z,101070.44
2022-08-17T01:26:50.557Z,101066.88
2022-08-17T01:29:21.650Z,101063.31
2022-08-17T01:31:55.343Z,101060.69
2022-08-17T01:34:25.249Z,101064.31
2022-08-17T01:37:12.568Z,101059.03
2022-08-17T01:39:48.599Z,101054.59
2022-08-17T01:42:23.858Z,101056.44
2022-08-17T01:44:59.020Z,101046.69
2022-08-17T01:47:29.907Z,101049.47
2022-08-17T01:50:00.911Z,101045.03
2022-08-17T01:52:30.636Z,101045.09
2022-08-17T01:55:03.416Z,101049.56
2022-08-17T01:57:33.157Z,101052.28
2022-08-17T02:00:03.002Z,101054.97
2022-08-17T02:02:33.261Z,101065.72
2022-08-17T02:05:03.031Z,101065.72
2022-08-17T02:07:32.789Z,101065.69
2022-08-17T02:10:25.677Z,101062.13
2022-08-17T02:13:04.527Z,101057.66
2022-08-17T02:15:35.264Z,101057.66
2022-08-17T02:18:05.718Z,101053.22
2022-08-17T02:20:42.627Z,101047.84
2022-08-17T02:23:14.720Z,101052.31
2022-08-17T02:25:50.580Z,101058.59
2022-08-17T02:28:21.439Z,101064.88
2022-08-17T02:31:02.294Z,101059.56
2022-08-17T02:33:43.012Z,101064.03
2022-08-17T02:36:14.686Z,101065.84
2022-08-17T02:38:45.301Z,101053.38
2022-08-17T02:41:17.693Z,101054.28
2022-08-17T02:43:47.466Z,101056.09
2022-08-17T02:46:17.176Z,101066.81
2022-08-17T02:48:47.132Z,101056.16
2022-08-17T02:51:16.898Z,101065.97
2022-08-17T02:53:46.886Z,101060.66
2022-08-17T02:56:19.394Z,101069.59
2022-08-17T02:58:49.321Z,101066.94
2022-08-17T03:01:19.324Z,101072.31
2022-08-17T03:03:49.284Z,101061.66
2022-08-17T03:06:19.542Z,101066.13
2022-08-17T03:08:49.260Z,101059.00
2022-08-17T03:11:22.129Z,101066.16
2022-08-17T03:13:51.910Z,101057.25
2022-08-17T03:16:21.625Z,101051.97
2022-08-17T03:18:51.426Z,101059.13
2022-08-17T03:21:21.127Z,101070.75
2022-08-17T03:23:54.341Z,101078.78
2022-08-17T03:26:29.643Z,101076.97
2022-08-17T03:28:59.682Z,101079.66
2022-08-17T03:31:29.397Z,101087.69
2022-08-17T03:33:59.261Z,101090.34
2022-08-17T03:36:29.677Z,101089.44
2022-08-17T03:39:01.049Z,101078.75
2022-08-17T03:41:33.448Z,101079.66
2022-08-17T03:44:03.186Z,101074.31
2022-08-17T03:46:45.352Z,101072.56
2022-08-17T03:49:27.501Z,101066.34
2022-08-17T03:52:11.147Z,101065.47
2022-08-17T03:54:53.376Z,101064.66
2022-08-17T03:57:26.210Z,101066.47
2022-08-17T03:59:56.582Z,101063.84
2022-08-17T04:02:28.326Z,101055.00
2022-08-17T04:04:58.180Z,101052.34
2022-08-17T04:07:31.101Z,101054.16
2022-08-17T04:10:00.967Z,101049.72
2022-08-17T04:12:47.138Z,101055.94
2022-08-17T04:15:18.538Z,101070.22
2022-08-17T04:17:48.408Z,101068.44
2022-08-17T04:20:20.524Z,101067.50
2022-08-17T04:23:02.275Z,101079.09
2022-08-17T04:25:33.716Z,101079.09
2022-08-17T04:28:15.759Z,101079.97
2022-08-17T04:30:48.860Z,101084.41
2022-08-17T04:33:21.975Z,101085.28
2022-08-17T04:35:54.065Z,101090.63
2022-08-17T04:38:25.704Z,101089.75
2022-08-17T04:41:08.631Z,101080.81
2022-08-17T04:43:43.022Z,101080.84
2022-08-17T04:46:15.585Z,101081.69
2022-08-17T04:48:47.628Z,101083.47
2022-08-17T04:51:22.258Z,101071.91
2022-08-17T04:53:55.179Z,101068.34
2022-08-17T04:56:26.159Z,101083.50
2022-08-17T04:59:04.463Z,101070.97
2022-08-17T05:01:36.539Z,101084.28
2022-08-17T05:04:21.331Z,101078.00
2022-08-17T05:06:58.839Z,101092.28
2022-08-17T05:09:29.171Z,101093.16
2022-08-17T05:11:58.860Z,101087.78
2022-08-17T05:14:33.541Z,101091.34
2022-08-17T05:17:10.620Z,101092.22
2022-08-17T05:19:41.771Z,101094.00
2022-08-17T05:22:11.562Z,101099.31
2022-08-17T05:24:43.648Z,101100.19
2022-08-17T05:27:25.330Z,101096.59
2022-08-17T05:30:02.176Z,101099.25
2022-08-17T05:32:38.457Z,101101.88
2022-08-17T05:35:11.192Z,101107.22
2022-08-17T05:37:40.929Z,101113.44
2022-08-17T05:40:11.839Z,101110.81
2022-08-17T05:42:41.585Z,101100.19
2022-08-17T05:45:15.847Z,101104.69
2022-08-17T05:47:53.897Z,101103.78
2022-08-17T05:50:29.949Z,101102.00
2022-08-17T05:53:06.095Z,101109.16
2022-08-17T05:55:44.856Z,101113.66
2022-08-17T05:58:26.507Z,101102.94
2022-08-17T06:01:06.269Z,101107.41
2022-08-17T06:03:46.224Z,101114.56
2022-08-17T06:06:31.248Z,101111.00
2022-08-17T06:09:24.802Z,101119.03
2022-08-17T06:12:03.677Z,101118.13
2022-08-17T06:14:47.074Z,101121.66
2022-08-17T06:17:25.226Z,101126.09
2022-08-17T06:19:59.812Z,101133.22
2022-08-17T06:22:34.804Z,101125.19
2022-08-17T06:25:10.321Z,101131.44
2022-08-17T06:27:45.138Z,101142.13
2022-08-17T06:30:18.161Z,101143.94
2022-08-17T06:32:52.916Z,101154.59
2022-08-17T06:35:32.114Z,101160.81
2022-08-17T06:38:15.104Z,101160.78
2022-08-17T06:41:12.541Z,101160.75
2022-08-17T06:43:56.850Z,101164.28
2022-08-17T06:46:37.232Z,101174.13
2022-08-17T06:49:22.128Z,101174.06
2022-08-17T06:51:57.779Z,101167.75
2022-08-17T06:54:36.967Z,101163.25
2022-08-17T06:57:15.450Z,101165.00
2022-08-17T06:59:55.790Z,101156.94
2022-08-17T07:02:52.051Z,101162.28
2022-08-17T07:05:28.400Z,101160.50
2022-08-17T07:08:05.762Z,101169.38
2022-08-17T07:10:42.740Z,101164.94
2022-08-17T07:13:25.666Z,101180.13
2022-08-17T07:16:00.259Z,101174.78
2022-08-17T07:18:33.320Z,101184.56
2022-08-17T07:21:17.519Z,101183.66
2022-08-17T07:24:02.884Z,101197.91
2022-08-17T07:26:32.692Z,101202.31
2022-08-17T07:29:04.520Z,101200.47
2022-08-17T07:31:35.155Z,101196.84
2022-08-17T07:34:14.667Z,101187.91
2022-08-17T07:36:47.127Z,101189.63
2022-08-17T07:39:30.494Z,101203.88
2022-08-17T07:42:05.927Z,101199.31
2022-08-17T07:44:48.675Z,101193.94
2022-08-17T07:47:32.203Z,101184.97
2022-08-17T07:50:01.958Z,101195.66
2022-08-17T07:52:51.049Z,101191.16
2022-08-17T07:55:35.115Z,101200.88
2022-08-17T07:58:04.886Z,101202.63
2022-08-17T08:00:34.816Z,101199.03
2022-08-17T08:03:16.731Z,101193.69
2022-08-17T08:05:56.562Z,101195.53
2022-08-17T08:08:36.093Z,101193.81
2022-08-17T08:11:11.871Z,101193.84
2022-08-17T08:13:45.867Z,101198.38
2022-08-17T08:16:24.559Z,101188.59
2022-08-17T08:18:58.259Z,101194.94
2022-08-17T08:21:49.283Z,101198.56
2022-08-17T08:24:36.817Z,101187.03
2022-08-17T08:27:13.944Z,101183.50
2022-08-17T08:29:55.598Z,101198.69
2022-08-17T08:32:57.301Z,101187.97
2022-08-17T08:35:34.503Z,101195.09
2022-08-17T08:38:13.672Z,101195.13
2022-08-17T08:40:59.597Z,101191.53
2022-08-17T08:43:38.547Z,101213.84
2022-08-17T08:46:24.581Z,101207.63
2022-08-17T08:49:45.125Z,101210.28
2022-08-17T08:52:24.913Z,101203.13
2022-08-17T08:55:00.675Z,101203.16
2022-08-17T08:57:36.851Z,101198.75
2022-08-17T09:00:15.827Z,101210.38
2022-08-17T09:03:19.262Z,101197.03
2022-08-17T09:06:32.483Z,101191.72
2022-08-17T09:09:10.274Z,101194.44
2022-08-17T09:12:02.518Z,101186.44
2022-08-17T09:14:47.093Z,101196.25
2022-08-17T09:17:22.068Z,101204.25
2022-08-17T09:19:57.471Z,101221.22
2022-08-17T09:22:33.426Z,101223.00
2022-08-17T09:25:11.895Z,101239.00
2022-08-17T09:27:53.659Z,101247.91
2022-08-17T09:30:26.790Z,101271.94
2022-08-17T09:33:01.930Z,101275.47
2022-08-17T09:35:37.580Z,101268.31
2022-08-17T09:38:21.501Z,101259.34
2022-08-17T09:40:55.724Z,101241.44
2022-08-17T09:43:33.563Z,101222.66
2022-08-17T09:46:14.488Z,101213.72
2022-08-17T09:48:50.561Z,101211.88
2022-08-17T09:51:27.495Z,101217.16
2022-08-17T09:54:14.783Z,101206.38
2022-08-17T09:57:25.709Z,101208.09
2022-08-17T10:00:01.223Z,101204.41
2022-08-17T10:03:00.985Z,101222.06
2022-08-17T10:05:40.089Z,101205.97
2022-08-17T10:08:22.953Z,101212.13
2022-08-17T10:11:08.893Z,101209.44
2022-08-17T10:13:53.228Z,101211.25
2022-08-17T10:16:32.589Z,101221.09
2022-08-17T10:19:17.444Z,101221.09
2022-08-17T10:22:14.962Z,101222.06
2022-08-17T10:25:21.508Z,101225.69
2022-08-17T10:27:57.795Z,101227.53
2022-08-17T10:30:30.987Z,101226.66
2022-08-17T10:33:03.997Z,101225.81
2022-08-17T10:35:41.507Z,101228.53
2022-08-17T10:38:36.614Z,101240.19
2022-08-17T10:41:22.409Z,101244.66
2022-08-17T10:44:39.723Z,101229.50
2022-08-17T10:47:06.340Z,101233.09
2022-08-17T10:49:37.181Z,101229.53
2022-08-17T10:52:42.403Z,101224.13
2022-08-17T10:55:20.528Z,101222.34
2022-08-17T10:57:54.989Z,101230.41
2022-08-17T11:01:04.150Z,101224.16
2022-08-17T11:03:35.066Z,101219.72
2022-08-17T11:06:18.144Z,101222.41
2022-08-17T11:09:08.881Z,101227.81
2022-08-17T11:12:29.182Z,101227.81
2022-08-17T11:15:21.089Z,101229.66
2022-08-17T11:18:32.469Z,101226.97
2022-08-17T11:21:24.792Z,101234.09
2022-08-17T11:24:09.757Z,101227.84
2022-08-17T11:26:46.370Z,101224.28
2022-08-17T11:29:24.924Z,101224.28
2022-08-17T11:32:13.142Z,101219.84
2022-08-17T11:34:45.743Z,101224.28
2022-08-17T11:37:40.350Z,101226.94
2022-08-17T11:40:41.334Z,101223.38
2022-08-17T11:43:25.791Z,101211.72
2022-08-17T11:46:07.028Z,101222.44
2022-08-17T11:49:01.514Z,101220.69
2022-08-17T11:52:01.427Z,101216.16
2022-08-17T11:54:47.406Z,101217.06
2022-08-17T11:57:47.369Z,101217.00
2022-08-17T12:00:46.765Z,101216.09
2022-08-17T12:03:55.352Z,101212.44
2022-08-17T12:06:38.282Z,101209.72
2022-08-17T12:09:13.956Z,101208.81
2022-08-17T12:11:56.248Z,101206.06
2022-08-17T12:15:08.873Z,101214.94
2022-08-17T12:17:40.166Z,101205.97
2022-08-17T12:20:17.810Z,101198.81
2022-08-17T12:23:01.309Z,101197.97
2022-08-17T12:25:39.177Z,101206.94
2022-08-17T12:28:23.054Z,101189.97
2022-08-17T12:30:54.789Z,101202.47
2022-08-17T12:33:28.886Z,101190.81
2022-08-17T12:36:03.099Z,101193.44
2022-08-17T12:38:38.466Z,101189.00
2022-08-17T12:41:23.486Z,101192.56
2022-08-17T12:44:02.269Z,101194.34
2022-08-17T12:46:36.205Z,101188.09
2022-08-17T12:49:23.097Z,101189.00
2022-08-17T12:51:56.677Z,101181.84
2022-08-17T12:54:43.564Z,101180.09
2022-08-17T12:57:18.480Z,101177.50
2022-08-17T12:59:51.905Z,101177.47
2022-08-17T13:02:44.313Z,101175.69
2022-08-17T13:05:31.024Z,101167.69
2022-08-17T13:08:04.607Z,101159.69
2022-08-17T13:10:39.296Z,101163.22
2022-08-17T13:13:22.931Z,101162.34
2022-08-17T13:15:57.428Z,101177.53
2022-08-17T13:21:30.725Z,101181.16
2022-08-17T13:24:02.865Z,101166.94
2022-08-17T13:26:38.226Z,101177.72
2022-08-17T13:29:09.774Z,101171.47
2022-08-17T13:31:52.832Z,101169.72
2022-08-17T13:34:48.970Z,101168.84
2022-08-17T13:37:35.364Z,101167.13
2022-08-17T13:40:38.546Z,101171.59
2022-08-17T13:43:11.418Z,101161.81
2022-08-17T13:45:50.712Z,101158.19
2022-08-17T13:48:30.249Z,101168.00
2022-08-17T13:51:17.288Z,101169.75
2022-08-17T13:53:57.980Z,101171.53
2022-08-17T13:56:37.394Z,101163.53
2022-08-17T13:59:15.004Z,101173.38
2022-08-17T14:01:53.413Z,101168.09
2022-08-17T14:04:25.840Z,101178.81
2022-08-17T14:06:58.468Z,101182.38
2022-08-17T14:09:36.803Z,101179.72
2022-08-17T14:12:09.764Z,101187.78
2022-08-17T14:14:43.139Z,101178.00
2022-08-17T14:17:13.486Z,101177.13
2022-08-17T14:19:43.265Z,101181.56
2022-08-17T14:22:23.791Z,101188.72
2022-08-17T14:24:54.293Z,101176.19
2022-08-17T14:27:28.198Z,101195.88
2022-08-17T14:30:00.870Z,101184.31
2022-08-17T14:32:33.119Z,101186.16
2022-08-17T14:35:03.876Z,101168.31
2022-08-17T14:37:34.615Z,101168.31
2022-08-17T14:40:08.191Z,101164.75
2022-08-17T14:42:41.836Z,101171.03
2022-08-17T14:45:31.812Z,101171.06
2022-08-17T14:48:04.334Z,101164.81
2022-08-17T14:50:35.290Z,101161.25
2022-08-17T14:53:05.970Z,101159.50
2022-08-17T14:55:36.936Z,101154.16
2022-08-17T14:58:07.077Z,101156.84
2022-08-17T15:00:41.008Z,101157.72
2022-08-17T15:03:11.620Z,101158.63
2022-08-17T15:05:44.234Z,101152.34
2022-08-17T15:08:14.713Z,101149.69
2022-08-17T15:10:44.963Z,101162.19
2022-08-17T15:13:20.573Z,101176.44
2022-08-17T15:15:56.343Z,101164.91
2022-08-17T15:18:26.186Z,101173.88
2022-08-17T15:20:56.353Z,101179.25
2022-08-17T15:23:28.761Z,101184.63
2022-08-17T15:25:58.482Z,101195.44
2022-08-17T15:28:28.234Z,101184.78
2022-08-17T15:31:00.615Z,101175.91
2022-08-17T15:33:32.067Z,101182.16
2022-08-17T15:36:03.979Z,101175.06
2022-08-17T15:38:35.425Z,101174.25
2022-08-17T15:41:06.496Z,101171.53
2022-08-17T15:43:36.914Z,101174.25
2022-08-17T15:46:12.454Z,101170.72
2022-08-17T15:48:44.804Z,101160.94
2022-08-17T15:51:16.753Z,101155.63
2022-08-17T15:53:49.464Z,101152.09
2022-08-17T15:56:19.969Z,101150.28
2022-08-17T15:58:51.215Z,101149.34
2022-08-17T16:03:01.250Z,101145.81
2022-08-17T16:04:29.884Z,101138.66
2022-08-17T16:07:01.108Z,101134.22
2022-08-17T16:09:31.085Z,101131.53
2022-08-17T16:12:00.935Z,101131.53
2022-08-17T16:14:33.567Z,101133.34
2022-08-17T16:17:38.365Z,101126.22
2022-08-17T16:19:59.854Z,101126.22
2022-08-17T16:22:35.256Z,101128.00
2022-08-17T16:25:07.778Z,101137.81
2022-08-17T16:27:37.761Z,101142.28
2022-08-17T16:30:10.504Z,101146.75
2022-08-17T16:32:45.395Z,101157.44
2022-08-17T16:35:17.113Z,101152.13
2022-08-17T16:37:47.700Z,101159.28
2022-08-17T16:40:19.105Z,101163.72
2022-08-17T16:42:51.591Z,101171.78
2022-08-17T16:45:23.833Z,101167.34
2022-08-17T16:47:59.267Z,101161.97
2022-08-17T16:50:29.049Z,101165.53
2022-08-17T16:53:06.658Z,101168.22
2022-08-17T16:55:37.694Z,101182.47
2022-08-17T16:58:09.033Z,101193.16
2022-08-17T17:00:39.472Z,101187.81
2022-08-17T17:03:19.337Z,101194.94
2022-08-17T17:06:03.570Z,101202.97
2022-08-17T17:08:43.678Z,101203.84
2022-08-17T17:11:18.312Z,101205.63
2022-08-17T17:13:54.692Z,101190.50
2022-08-17T17:16:34.740Z,101178.88
2022-08-17T17:19:13.452Z,101180.69
2022-08-17T17:21:49.515Z,101166.44
2022-08-17T17:24:28.846Z,101164.63
2022-08-17T17:27:13.046Z,101157.53
2022-08-17T17:29:57.338Z,101151.28
2022-08-17T17:32:38.742Z,101145.97
2022-08-17T17:35:17.762Z,101145.06
2022-08-17T17:37:49.899Z,101134.41
2022-08-17T17:40:24.752Z,101136.22
2022-08-17T17:42:56.484Z,101115.75
2022-08-17T17:45:31.319Z,101118.44
2022-08-17T17:48:01.086Z,101122.88
2022-08-17T17:50:39.508Z,101144.25
2022-08-17T17:53:12.504Z,101140.69
2022-08-17T17:55:54.486Z,101152.31
2022-08-17T17:58:39.355Z,101159.41
2022-08-17T18:01:34.484Z,101154.06
2022-08-17T18:04:23.394Z,101144.28
2022-08-17T18:07:10.118Z,101138.88
2022-08-17T18:10:01.415Z,101137.97
2022-08-17T18:12:38.765Z,101137.97
2022-08-17T18:15:29.588Z,101140.63
2022-08-17T18:18:05.698Z,101137.06
2022-08-17T18:20:53.146Z,101151.25
2022-08-17T18:23:28.632Z,101144.13
2022-08-17T18:26:01.408Z,101134.31
2022-08-17T18:28:33.427Z,101134.34
2022-08-17T18:31:12.630Z,101131.66
2022-08-17T18:33:44.657Z,101140.56
2022-08-17T18:36:15.585Z,101139.66
2022-08-17T18:38:47.962Z,101142.34
2022-08-17T18:41:25.981Z,101140.56
2022-08-17T18:44:04.902Z,101136.13
2022-08-17T18:46:38.365Z,101145.06
2022-08-17T18:49:10.955Z,101144.13
2022-08-17T18:51:43.670Z,101143.25
2022-08-17T18:54:26.656Z,101141.47
2022-08-17T18:56:59.070Z,101145.03
2022-08-17T18:59:37.222Z,101145.91
2022-08-17T19:02:40.368Z,101150.34
2022-08-17T19:05:29.931Z,101159.22
2022-08-17T19:08:20.521Z,101171.69
2022-08-17T19:10:56.954Z,101168.13
2022-08-17T19:13:34.367Z,101175.22
2022-08-17T19:16:14.974Z,101180.56
2022-08-17T19:18:52.146Z,101187.69
2022-08-17T19:21:26.835Z,101185.03
2022-08-17T19:24:02.090Z,101180.63
2022-08-17T19:26:51.266Z,101170.84
2022-08-17T19:29:29.309Z,101169.09
2022-08-17T19:32:00.169Z,101164.63
2022-08-17T19:34:34.592Z,101165.53
2022-08-17T19:37:23.353Z,101170.84
2022-08-17T19:40:02.520Z,101165.53
2022-08-17T19:42:47.674Z,101170.88
2022-08-17T19:45:32.956Z,101174.41
2022-08-17T19:48:16.679Z,101177.13
2022-08-17T19:50:54.194Z,101178.00
2022-08-17T19:54:01.532Z,101174.47
2022-08-17T19:56:32.646Z,101176.22
2022-08-17T19:59:14.667Z,101178.91
2022-08-17T20:01:50.666Z,101175.34
2022-08-17T20:04:35.041Z,101184.22
2022-08-17T20:07:17.545Z,101190.47
2022-08-17T20:09:53.011Z,101179.78
2022-08-17T20:12:26.283Z,101186.03
2022-08-17T20:15:02.950Z,101186.00
2022-08-17T20:17:35.220Z,101180.72
2022-08-17T20:20:29.767Z,101182.50
2022-08-17T20:23:05.281Z,101187.84
2022-08-17T20:25:45.124Z,101188.75
2022-08-17T20:28:24.687Z,101195.88
2022-08-17T20:30:57.393Z,101199.44
2022-08-17T20:33:30.001Z,101202.09
2022-08-17T20:36:06.313Z,101204.78
2022-08-17T20:38:45.316Z,101196.81
2022-08-17T20:41:20.947Z,101195.91
2022-08-17T20:44:06.824Z,101204.78
2022-08-17T20:46:59.788Z,101211.91
2022-08-17T20:49:38.228Z,101209.25
2022-08-17T20:52:11.130Z,101218.13
2022-08-17T20:54:49.503Z,101225.25
2022-08-17T20:57:49.070Z,101222.59
2022-08-17T21:00:44.897Z,101218.13
2022-08-17T21:03:50.631Z,101227.03
2022-08-17T21:06:27.498Z,101216.38
2022-08-17T21:09:01.074Z,101223.50
2022-08-17T21:12:04.063Z,101228.81
2022-08-17T21:14:43.780Z,101227.03
2022-08-17T21:17:42.055Z,101226.16
2022-08-17T21:20:26.581Z,101225.28
2022-08-17T21:23:13.817Z,101223.50
2022-08-17T21:26:00.433Z,101225.25
2022-08-17T21:29:00.840Z,101221.72
2022-08-17T21:31:34.893Z,101229.72
2022-08-17T21:34:30.654Z,101224.38
2022-08-17T21:37:34.930Z,101220.81
2022-08-17T21:40:26.270Z,101222.63
2022-08-17T21:42:58.775Z,101235.06
2022-08-17T21:45:32.028Z,101227.06
2022-08-17T21:48:16.061Z,101230.59
2022-08-17T21:50:50.026Z,101238.63
2022-08-17T21:53:32.735Z,101234.16
2022-08-17T21:56:05.736Z,101242.16
2022-08-17T21:58:40.303Z,101242.19
2022-08-17T22:01:25.390Z,101233.28
2022-08-17T22:04:03.361Z,101226.16
2022-08-17T22:06:38.227Z,101220.81
2022-08-17T22:09:15.346Z,101221.69
2022-08-17T22:12:02.584Z,101214.56
2022-08-17T22:14:52.776Z,101215.47
2022-08-17T22:17:27.752Z,101214.59
2022-08-17T22:20:01.514Z,101220.81
2022-08-17T22:22:56.225Z,101210.13
2022-08-17T22:25:25.698Z,101211.91
2022-08-17T22:28:00.452Z,101209.22
2022-08-17T22:30:36.245Z,101211.88
2022-08-17T22:33:39.197Z,101214.56
2022-08-17T22:36:29.102Z,101225.25
2022-08-17T22:39:01.023Z,101227.03
2022-08-17T22:41:45.818Z,101228.81
2022-08-17T22:44:25.344Z,101225.28
2022-08-17T22:47:02.278Z,101211.03
2022-08-17T22:49:38.662Z,101216.34
2022-08-17T22:52:56.715Z,101219.94
2022-08-17T22:55:39.175Z,101219.94
2022-08-17T22:58:26.109Z,101227.94
2022-08-17T23:00:58.667Z,101233.28
2022-08-17T23:03:30.192Z,101235.94
2022-08-17T23:06:12.016Z,101235.94
2022-08-17T23:08:49.003Z,101228.84
2022-08-17T23:11:19.177Z,101240.38
2022-08-17T23:14:06.100Z,101231.50
2022-08-17T23:16:42.473Z,101233.28
2022-08-17T23:19:12.535Z,101234.16
2022-08-17T23:21:42.691Z,101230.59
2022-08-17T23:24:13.931Z,101227.03
2022-08-17T23:26:43.732Z,101228.81
2022-08-17T23:29:13.549Z,101227.03
2022-08-17T23:31:46.138Z,101227.94
2022-08-17T23:34:18.578Z,101236.84
2022-08-17T23:36:52.448Z,101242.19
2022-08-17T23:39:24.719Z,101235.03
2022-08-17T23:41:58.422Z,101235.91
2022-08-17T23:44:28.905Z,101240.38
2022-08-17T23:47:04.749Z,101235.91
2022-08-17T23:49:36.207Z,101234.13
2022-08-17T23:52:10.070Z,101225.22
2022-08-17T23:54:43.872Z,101227.91
2022-08-17T23:57:14.912Z,101233.22
2022-08-17T23:59:44.819Z,101227.91
